Private Wetterstation Wechselburg
Wetterdaten: Sonntag, 21.10.2012
Datum Zeit Temp. +2m Bodentemp. Temp.+5cm Temp. Wind Windchill X Diff Temp. Feuchte +2m Feuchte +5cm Sonnenschein Luftdruck Regen Wind Richtung Richtung Sonnenschein UV Taupunkt Windchill Windben
21.10.2012 00:00 8,0 C 17,3 C 9,2 C 8,5 C 8,5 C 0,5 C 88 % 91 % 0 % 1018,8 hPa 0,0 l/m 0,0 km/h (0 Bft) W 270 0 min 0,0 UV-I 6,1 C 8,5 C 0,0 km/h (0 Bft)
21.10.2012 00:05 8,0 C 17,2 C 9,1 C 8,5 C 8,5 C 0,5 C 88 % 91 % 0 % 1018,9 hPa 0,0 l/m 0,0 km/h (0 Bft) SO 135 0 min 0,0 UV-I 6,1 C 8,5 C 0,0 km/h (0 Bft)
21.10.2012 00:10 8,0 C 17,3 C 9,1 C 8,4 C 8,4 C 0,4 C 89 % 91 % 0 % 1018,9 hPa 0,0 l/m 0,0 km/h (0 Bft) O 90 0 min 0,0 UV-I 6,3 C 8,4 C 0,0 km/h (0 Bft)
21.10.2012 00:15 8,0 C 17,3 C 9,1 C 8,5 C 8,5 C 0,5 C 89 % 91 % 0 % 1018,9 hPa 0,0 l/m 0,0 km/h (0 Bft) O-NO 67 0 min 0,0 UV-I 6,3 C 8,5 C 0,0 km/h (0 Bft)
21.10.2012 00:20 8,0 C 17,3 C 8,9 C 8,6 C 8,6 C 0,6 C 89 % 91 % 0 % 1018,9 hPa 0,0 l/m 0,0 km/h (0 Bft) O-NO 67 0 min 0,0 UV-I 6,3 C 8,6 C 0,0 km/h (0 Bft)
21.10.2012 00:25 8,0 C 17,3 C 8,9 C 8,6 C 8,6 C 0,6 C 89 % 91 % 0 % 1018,8 hPa 0,0 l/m 0,0 km/h (0 Bft) O-NO 67 0 min 0,0 UV-I 6,3 C 8,6 C 0,0 km/h (0 Bft)
21.10.2012 00:30 7,9 C 17,3 C 8,8 C 8,3 C 8,3 C 0,4 C 89 % 91 % 0 % 1018,8 hPa 0,0 l/m 0,0 km/h (0 Bft) O-NO 67 0 min 0,0 UV-I 6,2 C 8,3 C 0,0 km/h (0 Bft)
21.10.2012 00:35 7,9 C 17,3 C 8,8 C 8,3 C 8,3 C 0,4 C 89 % 91 % 0 % 1018,8 hPa 0,0 l/m 0,0 km/h (0 Bft) O-NO 67 0 min 0,0 UV-I 6,2 C 8,3 C 0,0 km/h (0 Bft)
21.10.2012 00:41 7,7 C 17,3 C 8,8 C 8,2 C 8,2 C 0,5 C 89 % 91 % 0 % 1018,7 hPa 0,0 l/m 0,0 km/h (0 Bft) N 0 0 min 0,0 UV-I 6,0 C 8,2 C 0,0 km/h (0 Bft)
21.10.2012 00:55 7,6 C 17,3 C 8,7 C 8,1 C 8,1 C 0,5 C 89 % 91 % 0 % 1018,7 hPa 0,0 l/m 0,0 km/h (0 Bft) W-SW 247 0 min 0,0 UV-I 5,9 C 8,1 C 0,0 km/h (0 Bft)
21.10.2012 01:00 7,4 C 17,3 C 8,4 C 8,0 C 8,0 C 0,6 C 89 % 91 % 0 % 1018,7 hPa 0,0 l/m 0,0 km/h (0 Bft) W-SW 247 0 min 0,0 UV-I 5,7 C 8,0 C 0,0 km/h (0 Bft)
21.10.2012 01:05 7,5 C 17,2 C 8,4 C 8,0 C 8,0 C 0,5 C 89 % 91 % 0 % 1018,8 hPa 0,0 l/m 0,0 km/h (0 Bft) O-NO 67 0 min 0,0 UV-I 5,8 C 8,0 C 0,0 km/h (0 Bft)
21.10.2012 01:10 7,6 C 17,3 C 8,3 C 8,1 C 8,1 C 0,5 C 89 % 91 % 0 % 1018,8 hPa 0,0 l/m 0,0 km/h (0 Bft) O-NO 67 0 min 0,0 UV-I 5,9 C 8,1 C 0,0 km/h (0 Bft)
21.10.2012 01:15 7,6 C 17,2 C 8,4 C 8,1 C 8,1 C 0,5 C 90 % 91 % 0 % 1018,8 hPa 0,0 l/m 0,0 km/h (0 Bft) O-NO 67 0 min 0,0 UV-I 6,1 C 8,1 C 0,0 km/h (0 Bft)
21.10.2012 01:20 7,6 C 17,2 C 8,5 C 8,0 C 8,0 C 0,4 C 89 % 92 % 0 % 1018,8 hPa 0,0 l/m 0,0 km/h (0 Bft) W-SW 247 0 min 0,0 UV-I 5,9 C 8,0 C 0,0 km/h (0 Bft)
21.10.2012 01:25 7,4 C 17,2 C 8,5 C 7,8 C 7,8 C 0,4 C 89 % 92 % 0 % 1018,6 hPa 0,0 l/m 0,0 km/h (0 Bft) SW 225 0 min 0,0 UV-I 5,7 C 7,8 C 0,0 km/h (0 Bft)
21.10.2012 01:30 7,3 C 17,2 C 8,2 C 7,6 C 7,6 C 0,3 C 89 % 91 % 0 % 1018,6 hPa 0,0 l/m 0,0 km/h (0 Bft) W-SW 247 0 min 0,0 UV-I 5,6 C 7,6 C 0,0 km/h (0 Bft)
21.10.2012 01:35 7,3 C 17,2 C 8,3 C 7,5 C 7,5 C 0,2 C 89 % 91 % 0 % 1018,6 hPa 0,0 l/m 0,0 km/h (0 Bft) W-SW 247 0 min 0,0 UV-I 5,6 C 7,5 C 0,0 km/h (0 Bft)
21.10.2012 01:40 7,1 C 17,2 C 8,1 C 7,4 C 7,4 C 0,3 C 89 % 91 % 0 % 1018,6 hPa 0,0 l/m 0,0 km/h (0 Bft) W-SW 247 0 min 0,0 UV-I 5,4 C 7,4 C 0,0 km/h (0 Bft)
21.10.2012 01:45 7,1 C 17,2 C 8,1 C 7,2 C 7,2 C 0,1 C 89 % 91 % 0 % 1018,8 hPa 0,0 l/m 0,0 km/h (0 Bft) W-SW 247 0 min 0,0 UV-I 5,4 C 7,2 C 0,0 km/h (0 Bft)
21.10.2012 01:50 7,1 C 17,2 C 8,0 C 7,2 C 7,2 C 0,1 C 89 % 91 % 0 % 1018,8 hPa 0,0 l/m 0,0 km/h (0 Bft) O 90 0 min 0,0 UV-I 5,4 C 7,2 C 0,0 km/h (0 Bft)
21.10.2012 01:55 7,1 C 17,1 C 8,0 C 7,3 C 7,3 C 0,2 C 89 % 91 % 0 % 1018,8 hPa 0,0 l/m 0,0 km/h (0 Bft) O-NO 67 0 min 0,0 UV-I 5,4 C 7,3 C 0,0 km/h (0 Bft)
21.10.2012 02:00 7,1 C 17,1 C 7,9 C 7,4 C 7,4 C 0,3 C 89 % 91 % 0 % 1018,8 hPa 0,0 l/m 0,0 km/h (0 Bft) O-NO 67 0 min 0,0 UV-I 5,4 C 7,4 C 0,0 km/h (0 Bft)
21.10.2012 02:05 7,0 C 17,1 C 8,0 C 7,5 C 7,5 C 0,5 C 90 % 91 % 0 % 1018,9 hPa 0,0 l/m 0,0 km/h (0 Bft) O-NO 67 0 min 0,0 UV-I 5,5 C 7,5 C 0,0 km/h (0 Bft)
21.10.2012 02:10 7,1 C 17,1 C 7,9 C 7,5 C 7,5 C 0,4 C 90 % 91 % 0 % 1018,9 hPa 0,0 l/m 0,0 km/h (0 Bft) O-NO 67 0 min 0,0 UV-I 5,6 C 7,5 C 0,0 km/h (0 Bft)
21.10.2012 02:15 7,1 C 17,1 C 7,9 C 7,5 C 7,5 C 0,4 C 90 % 91 % 0 % 1018,9 hPa 0,0 l/m 0,0 km/h (0 Bft) O-NO 67 0 min 0,0 UV-I 5,6 C 7,5 C 0,0 km/h (0 Bft)
21.10.2012 02:20 7,1 C 17,1 C 7,9 C 7,5 C 7,5 C 0,4 C 90 % 91 % 0 % 1018,9 hPa 0,0 l/m 0,0 km/h (0 Bft) O-NO 67 0 min 0,0 UV-I 5,6 C 7,5 C 0,0 km/h (0 Bft)
21.10.2012 02:25 6,8 C 17,1 C 7,9 C 7,2 C 7,2 C 0,4 C 90 % 91 % 0 % 1019,2 hPa 0,0 l/m 0,0 km/h (0 Bft) W-SW 247 0 min 0,0 UV-I 5,3 C 7,2 C 0,0 km/h (0 Bft)
21.10.2012 02:30 6,7 C 17,0 C 7,8 C 7,0 C 7,0 C 0,3 C 89 % 91 % 0 % 1019,2 hPa 0,0 l/m 0,0 km/h (0 Bft) W-SW 247 0 min 0,0 UV-I 5,0 C 7,0 C 0,0 km/h (0 Bft)
21.10.2012 02:35 6,7 C 17,0 C 7,7 C 6,8 C 6,8 C 0,1 C 89 % 91 % 0 % 1019,2 hPa 0,0 l/m 0,0 km/h (0 Bft) W-SW 247 0 min 0,0 UV-I 5,0 C 6,8 C 0,0 km/h (0 Bft)
21.10.2012 02:40 6,5 C 17,0 C 7,7 C 6,9 C 6,9 C 0,4 C 90 % 91 % 0 % 1019,2 hPa 0,0 l/m 0,0 km/h (0 Bft) W-SW 247 0 min 0,0 UV-I 5,0 C 6,9 C 0,0 km/h (0 Bft)
21.10.2012 02:45 6,6 C 17,0 C 7,7 C 7,0 C 7,0 C 0,4 C 90 % 92 % 0 % 1018,8 hPa 0,0 l/m 0,0 km/h (0 Bft) N-NW 337 0 min 0,0 UV-I 5,1 C 7,0 C 0,0 km/h (0 Bft)
21.10.2012 02:50 6,7 C 17,0 C 7,7 C 7,2 C 7,2 C 0,5 C 90 % 92 % 0 % 1018,8 hPa 0,0 l/m 0,0 km/h (0 Bft) NW 315 0 min 0,0 UV-I 5,2 C 7,2 C 0,0 km/h (0 Bft)
21.10.2012 02:55 6,7 C 17,0 C 7,8 C 7,1 C 7,1 C 0,4 C 90 % 92 % 0 % 1018,8 hPa 0,0 l/m 0,0 km/h (0 Bft) W 270 0 min 0,0 UV-I 5,2 C 7,1 C 0,0 km/h (0 Bft)
21.10.2012 03:00 6,6 C 17,0 C 7,9 C 7,1 C 7,1 C 0,5 C 90 % 92 % 0 % 1018,8 hPa 0,0 l/m 0,0 km/h (0 Bft) W 270 0 min 0,0 UV-I 5,1 C 7,1 C 0,0 km/h (0 Bft)
21.10.2012 03:05 6,7 C 17,0 C 7,9 C 7,0 C 7,0 C 0,3 C 90 % 92 % 0 % 1018,9 hPa 0,0 l/m 0,0 km/h (0 Bft) SW 225 0 min 0,0 UV-I 5,2 C 7,0 C 0,0 km/h (0 Bft)
21.10.2012 03:10 6,4 C 17,0 C 7,6 C 6,7 C 6,7 C 0,3 C 90 % 92 % 0 % 1018,9 hPa 0,0 l/m 0,0 km/h (0 Bft) S-SW 202 0 min 0,0 UV-I 4,9 C 6,7 C 0,0 km/h (0 Bft)
21.10.2012 03:15 6,4 C 17,0 C 7,5 C 6,7 C 6,7 C 0,3 C 90 % 92 % 0 % 1018,9 hPa 0,0 l/m 0,0 km/h (0 Bft) S-SO 157 0 min 0,0 UV-I 4,9 C 6,7 C 0,0 km/h (0 Bft)
21.10.2012 03:20 6,3 C 17,0 C 7,4 C 6,6 C 6,6 C 0,3 C 90 % 91 % 0 % 1018,9 hPa 0,0 l/m 0,0 km/h (0 Bft) O-NO 67 0 min 0,0 UV-I 4,8 C 6,6 C 0,0 km/h (0 Bft)
21.10.2012 03:25 6,3 C 16,9 C 7,4 C 6,6 C 6,6 C 0,3 C 90 % 92 % 0 % 1019,4 hPa 0,0 l/m 0,0 km/h (0 Bft) O 90 0 min 0,0 UV-I 4,8 C 6,6 C 0,0 km/h (0 Bft)
21.10.2012 03:30 6,3 C 16,9 C 7,3 C 6,7 C 6,7 C 0,4 C 90 % 92 % 0 % 1019,4 hPa 0,0 l/m 0,0 km/h (0 Bft) O 90 0 min 0,0 UV-I 4,8 C 6,7 C 0,0 km/h (0 Bft)
21.10.2012 03:35 6,3 C 16,9 C 7,3 C 6,7 C 6,7 C 0,4 C 90 % 92 % 0 % 1019,4 hPa 0,0 l/m 0,0 km/h (0 Bft) O-NO 67 0 min 0,0 UV-I 4,8 C 6,7 C 0,0 km/h (0 Bft)
21.10.2012 03:40 6,3 C 16,9 C 7,3 C 6,7 C 6,7 C 0,4 C 90 % 92 % 0 % 1019,4 hPa 0,0 l/m 0,0 km/h (0 Bft) SW 225 0 min 0,0 UV-I 4,8 C 6,7 C 0,0 km/h (0 Bft)
21.10.2012 03:45 6,3 C 16,9 C 7,2 C 6,4 C 6,4 C 0,1 C 90 % 92 % 0 % 1018,8 hPa 0,0 l/m 0,0 km/h (0 Bft) W-SW 247 0 min 0,0 UV-I 4,8 C 6,4 C 0,0 km/h (0 Bft)
21.10.2012 03:50 6,0 C 16,8 C 7,1 C 6,2 C 6,2 C 0,2 C 89 % 92 % 0 % 1018,8 hPa 0,0 l/m 0,0 km/h (0 Bft) W-SW 247 0 min 0,0 UV-I 4,3 C 6,2 C 0,0 km/h (0 Bft)
21.10.2012 03:55 5,9 C 16,8 C 7,1 C 6,1 C 6,1 C 0,2 C 89 % 92 % 0 % 1018,8 hPa 0,0 l/m 0,0 km/h (0 Bft) W-SW 247 0 min 0,0 UV-I 4,2 C 6,1 C 0,0 km/h (0 Bft)
21.10.2012 04:00 5,7 C 16,8 C 6,9 C 6,0 C 6,0 C 0,3 C 89 % 91 % 0 % 1018,8 hPa 0,0 l/m 0,0 km/h (0 Bft) W-SW 247 0 min 0,0 UV-I 4,0 C 6,0 C 0,0 km/h (0 Bft)
21.10.2012 04:05 5,6 C 16,8 C 6,9 C 5,9 C 5,9 C 0,3 C 89 % 92 % 0 % 1018,7 hPa 0,0 l/m 0,0 km/h (0 Bft) W-SW 247 0 min 0,0 UV-I 3,9 C 5,9 C 0,0 km/h (0 Bft)
21.10.2012 04:10 5,6 C 16,8 C 6,8 C 5,9 C 5,9 C 0,3 C 89 % 92 % 0 % 1018,7 hPa 0,0 l/m 0,0 km/h (0 Bft) W-SW 247 0 min 0,0 UV-I 3,9 C 5,9 C 0,0 km/h (0 Bft)
21.10.2012 04:15 5,5 C 16,9 C 6,8 C 5,8 C 5,8 C 0,3 C 89 % 92 % 0 % 1018,7 hPa 0,0 l/m 0,0 km/h (0 Bft) W-SW 247 0 min 0,0 UV-I 3,8 C 5,8 C 0,0 km/h (0 Bft)
21.10.2012 04:20 5,5 C 16,9 C 6,8 C 5,7 C 5,7 C 0,2 C 89 % 92 % 0 % 1018,7 hPa 0,0 l/m 0,0 km/h (0 Bft) W 270 0 min 0,0 UV-I 3,8 C 5,7 C 0,0 km/h (0 Bft)
21.10.2012 04:25 5,3 C 16,9 C 6,9 C 5,8 C 5,8 C 0,5 C 90 % 92 % 0 % 1018,8 hPa 0,0 l/m 0,0 km/h (0 Bft) W-SW 247 0 min 0,0 UV-I 3,8 C 5,8 C 0,0 km/h (0 Bft)
21.10.2012 04:30 5,3 C 16,9 C 6,8 C 5,7 C 5,7 C 0,4 C 90 % 92 % 0 % 1018,8 hPa 0,0 l/m 0,0 km/h (0 Bft) W 270 0 min 0,0 UV-I 3,8 C 5,7 C 0,0 km/h (0 Bft)
21.10.2012 04:35 5,3 C 16,9 C 6,7 C 5,7 C 5,7 C 0,4 C 90 % 92 % 0 % 1018,8 hPa 0,0 l/m 0,0 km/h (0 Bft) W 270 0 min 0,0 UV-I 3,8 C 5,7 C 0,0 km/h (0 Bft)
21.10.2012 04:40 5,3 C 16,8 C 6,7 C 5,7 C 5,7 C 0,4 C 90 % 92 % 0 % 1018,8 hPa 0,0 l/m 0,0 km/h (0 Bft) W 270 0 min 0,0 UV-I 3,8 C 5,7 C 0,0 km/h (0 Bft)
21.10.2012 04:45 5,2 C 16,8 C 6,7 C 5,7 C 5,7 C 0,5 C 90 % 92 % 0 % 1018,6 hPa 0,0 l/m 0,0 km/h (0 Bft) W 270 0 min 0,0 UV-I 3,7 C 5,7 C 0,0 km/h (0 Bft)
21.10.2012 04:50 5,2 C 16,8 C 6,6 C 5,8 C 5,8 C 0,6 C 90 % 92 % 0 % 1018,6 hPa 0,0 l/m 0,0 km/h (0 Bft) W-SW 247 0 min 0,0 UV-I 3,7 C 5,8 C 0,0 km/h (0 Bft)
21.10.2012 04:55 5,2 C 16,8 C 6,6 C 5,7 C 5,7 C 0,5 C 90 % 92 % 0 % 1018,6 hPa 0,0 l/m 0,0 km/h (0 Bft) W-SW 247 0 min 0,0 UV-I 3,7 C 5,7 C 0,0 km/h (0 Bft)
21.10.2012 05:00 5,3 C 16,8 C 6,5 C 5,7 C 5,7 C 0,4 C 90 % 92 % 0 % 1018,6 hPa 0,0 l/m 0,0 km/h (0 Bft) W-SW 247 0 min 0,0 UV-I 3,8 C 5,7 C 0,0 km/h (0 Bft)
21.10.2012 05:05 5,2 C 16,8 C 6,5 C 5,7 C 5,7 C 0,5 C 90 % 92 % 0 % 1019,0 hPa 0,0 l/m 0,0 km/h (0 Bft) W 270 0 min 0,0 UV-I 3,7 C 5,7 C 0,0 km/h (0 Bft)
21.10.2012 05:10 5,2 C 16,8 C 6,5 C 5,8 C 5,8 C 0,6 C 90 % 92 % 0 % 1019,0 hPa 0,0 l/m 0,0 km/h (0 Bft) O 90 0 min 0,0 UV-I 3,7 C 5,8 C 0,0 km/h (0 Bft)
21.10.2012 05:15 5,2 C 16,8 C 6,4 C 5,8 C 5,8 C 0,6 C 91 % 92 % 0 % 1019,0 hPa 0,0 l/m 0,0 km/h (0 Bft) O-NO 67 0 min 0,0 UV-I 3,9 C 5,8 C 0,0 km/h (0 Bft)
21.10.2012 05:20 5,3 C 16,8 C 6,4 C 5,9 C 5,9 C 0,6 C 91 % 92 % 0 % 1019,0 hPa 0,0 l/m 0,0 km/h (0 Bft) O-NO 67 0 min 0,0 UV-I 4,0 C 5,9 C 0,0 km/h (0 Bft)
21.10.2012 05:25 5,3 C 16,7 C 6,4 C 5,9 C 5,9 C 0,6 C 91 % 92 % 0 % 1019,5 hPa 0,0 l/m 0,0 km/h (0 Bft) NO 45 0 min 0,0 UV-I 4,0 C 5,9 C 0,0 km/h (0 Bft)
21.10.2012 05:30 5,3 C 16,7 C 6,4 C 5,8 C 5,8 C 0,5 C 90 % 92 % 0 % 1019,5 hPa 0,0 l/m 0,0 km/h (0 Bft) NO 45 0 min 0,0 UV-I 3,8 C 5,8 C 0,0 km/h (0 Bft)
21.10.2012 05:35 5,2 C 16,7 C 6,4 C 5,8 C 5,8 C 0,6 C 90 % 92 % 0 % 1019,5 hPa 0,0 l/m 0,0 km/h (0 Bft) NO 45 0 min 0,0 UV-I 3,7 C 5,8 C 0,0 km/h (0 Bft)
21.10.2012 05:40 5,1 C 16,7 C 6,4 C 5,8 C 5,8 C 0,7 C 91 % 92 % 0 % 1019,5 hPa 0,0 l/m 0,0 km/h (0 Bft) NO 45 0 min 0,0 UV-I 3,8 C 5,8 C 0,0 km/h (0 Bft)
21.10.2012 05:45 5,2 C 16,7 C 6,4 C 5,8 C 5,8 C 0,6 C 91 % 92 % 0 % 1018,7 hPa 0,0 l/m 0,0 km/h (0 Bft) NO 45 0 min 0,0 UV-I 3,9 C 5,8 C 0,0 km/h (0 Bft)
21.10.2012 05:50 5,1 C 16,7 C 6,3 C 5,8 C 5,8 C 0,7 C 91 % 92 % 0 % 1018,7 hPa 0,0 l/m 0,0 km/h (0 Bft) O-NO 67 0 min 0,0 UV-I 3,8 C 5,8 C 0,0 km/h (0 Bft)
21.10.2012 05:55 5,2 C 16,7 C 6,3 C 5,9 C 5,9 C 0,7 C 91 % 92 % 0 % 1018,7 hPa 0,0 l/m 0,0 km/h (0 Bft) O-SO 112 0 min 0,0 UV-I 3,9 C 5,9 C 0,0 km/h (0 Bft)
21.10.2012 06:00 5,3 C 16,7 C 6,3 C 5,9 C 5,9 C 0,6 C 91 % 92 % 0 % 1018,7 hPa 0,0 l/m 0,0 km/h (0 Bft) O-NO 67 0 min 0,0 UV-I 4,0 C 5,9 C 0,0 km/h (0 Bft)
21.10.2012 06:05 5,5 C 16,7 C 6,4 C 6,0 C 6,0 C 0,5 C 91 % 92 % 0 % 1018,7 hPa 0,0 l/m 0,0 km/h (0 Bft) O 90 0 min 0,0 UV-I 4,2 C 6,0 C 0,0 km/h (0 Bft)
21.10.2012 06:10 5,5 C 16,6 C 6,4 C 6,0 C 6,0 C 0,5 C 91 % 92 % 0 % 1018,7 hPa 0,0 l/m 0,0 km/h (0 Bft) O-NO 67 0 min 0,0 UV-I 4,2 C 6,0 C 0,0 km/h (0 Bft)
21.10.2012 06:15 5,3 C 16,6 C 6,4 C 5,7 C 5,7 C 0,4 C 91 % 92 % 0 % 1018,7 hPa 0,0 l/m 0,0 km/h (0 Bft) W 270 0 min 0,0 UV-I 4,0 C 5,7 C 0,0 km/h (0 Bft)
21.10.2012 06:20 5,1 C 16,6 C 6,3 C 5,6 C 5,6 C 0,5 C 91 % 92 % 0 % 1018,7 hPa 0,0 l/m 0,0 km/h (0 Bft) NW 315 0 min 0,0 UV-I 3,8 C 5,6 C 0,0 km/h (0 Bft)
21.10.2012 06:25 5,0 C 16,6 C 6,3 C 5,4 C 5,4 C 0,4 C 91 % 92 % 0 % 1018,7 hPa 0,0 l/m 0,0 km/h (0 Bft) NW 315 0 min 0,0 UV-I 3,7 C 5,4 C 0,0 km/h (0 Bft)
21.10.2012 06:30 4,9 C 16,6 C 6,1 C 5,2 C 5,2 C 0,3 C 91 % 92 % 0 % 1018,7 hPa 0,0 l/m 0,0 km/h (0 Bft) NW 315 0 min 0,0 UV-I 3,6 C 5,2 C 0,0 km/h (0 Bft)
21.10.2012 06:35 4,9 C 16,6 C 6,1 C 5,1 C 5,1 C 0,2 C 90 % 92 % 0 % 1018,7 hPa 0,0 l/m 0,0 km/h (0 Bft) NW 315 0 min 0,0 UV-I 3,4 C 5,1 C 0,0 km/h (0 Bft)
21.10.2012 06:46 4,5 C 16,5 C 6,0 C 4,9 C 4,9 C 0,4 C 90 % 92 % 0 % 1018,8 hPa 0,0 l/m 0,0 km/h (0 Bft) N 0 0 min 0,0 UV-I 3,0 C 4,9 C 0,0 km/h (0 Bft)
21.10.2012 06:55 4,5 C 16,5 C 6,0 C 4,8 C 4,8 C 0,3 C 90 % 92 % 0 % 1018,8 hPa 0,0 l/m 0,0 km/h (0 Bft) NW 315 0 min 0,0 UV-I 3,0 C 4,8 C 0,0 km/h (0 Bft)
21.10.2012 07:00 4,4 C 16,5 C 5,9 C 4,8 C 4,8 C 0,4 C 90 % 92 % 0 % 1018,8 hPa 0,0 l/m 0,0 km/h (0 Bft) N-NO 22 0 min 0,0 UV-I 2,9 C 4,8 C 0,0 km/h (0 Bft)
21.10.2012 07:05 4,5 C 16,5 C 5,8 C 4,9 C 4,9 C 0,4 C 90 % 92 % 0 % 1019,1 hPa 0,0 l/m 0,0 km/h (0 Bft) O 90 0 min 0,0 UV-I 3,0 C 4,9 C 0,0 km/h (0 Bft)
21.10.2012 07:10 4,7 C 16,5 C 5,9 C 5,0 C 5,0 C 0,3 C 91 % 92 % 0 % 1019,1 hPa 0,0 l/m 0,0 km/h (0 Bft) O-NO 67 0 min 0,0 UV-I 3,4 C 5,0 C 0,0 km/h (0 Bft)
21.10.2012 07:15 4,6 C 16,5 C 5,8 C 5,1 C 5,1 C 0,5 C 90 % 92 % 0 % 1019,1 hPa 0,0 l/m 0,0 km/h (0 Bft) NW 315 0 min 0,0 UV-I 3,1 C 5,1 C 0,0 km/h (0 Bft)
21.10.2012 07:20 4,6 C 16,5 C 5,9 C 4,9 C 4,9 C 0,3 C 90 % 92 % 0 % 1019,1 hPa 0,0 l/m 0,0 km/h (0 Bft) W-NW 292 0 min 0,0 UV-I 3,1 C 4,9 C 0,0 km/h (0 Bft)
21.10.2012 07:25 4,6 C 16,5 C 5,8 C 4,9 C 4,9 C 0,3 C 90 % 92 % 0 % 1019,2 hPa 0,0 l/m 0,0 km/h (0 Bft) O-NO 67 0 min 0,0 UV-I 3,1 C 4,9 C 0,0 km/h (0 Bft)
21.10.2012 07:30 4,6 C 16,4 C 5,8 C 5,0 C 5,0 C 0,4 C 90 % 92 % 0 % 1019,2 hPa 0,0 l/m 0,0 km/h (0 Bft) W 270 0 min 0,0 UV-I 3,1 C 5,0 C 0,0 km/h (0 Bft)
21.10.2012 07:35 4,5 C 16,4 C 5,9 C 4,9 C 4,9 C 0,4 C 90 % 92 % 0 % 1019,2 hPa 0,0 l/m 0,0 km/h (0 Bft) W-SW 247 0 min 0,0 UV-I 3,0 C 4,9 C 0,0 km/h (0 Bft)
21.10.2012 07:40 4,4 C 16,4 C 5,9 C 4,9 C 4,9 C 0,5 C 90 % 92 % 0 % 1019,2 hPa 0,0 l/m 0,0 km/h (0 Bft) SO 135 0 min 0,0 UV-I 2,9 C 4,9 C 0,0 km/h (0 Bft)
21.10.2012 07:45 4,4 C 16,4 C 5,7 C 4,9 C 4,9 C 0,5 C 90 % 92 % 0 % 1019,4 hPa 0,0 l/m 0,0 km/h (0 Bft) O-SO 112 0 min 0,0 UV-I 2,9 C 4,9 C 0,0 km/h (0 Bft)
21.10.2012 07:50 4,4 C 16,4 C 5,7 C 4,8 C 4,8 C 0,4 C 91 % 92 % 0 % 1019,4 hPa 0,0 l/m 0,0 km/h (0 Bft) O-SO 112 0 min 0,0 UV-I 3,1 C 4,8 C 0,0 km/h (0 Bft)
21.10.2012 07:55 4,4 C 16,4 C 5,6 C 4,8 C 4,8 C 0,4 C 91 % 92 % 11 % 1019,4 hPa 0,0 l/m 0,0 km/h (0 Bft) N-NW 337 5 min 0,0 UV-I 3,1 C 4,8 C 0,0 km/h (0 Bft)
21.10.2012 08:00 4,4 C 16,4 C 5,5 C 4,8 C 4,8 C 0,4 C 91 % 92 % 11 % 1019,4 hPa 0,0 l/m 0,0 km/h (0 Bft) O-NO 67 5 min 0,0 UV-I 3,1 C 4,8 C 0,0 km/h (0 Bft)
21.10.2012 08:05 4,4 C 16,4 C 5,6 C 4,8 C 4,8 C 0,4 C 91 % 92 % 11 % 1019,6 hPa 0,0 l/m 0,0 km/h (0 Bft) O-NO 67 0 min 0,0 UV-I 3,1 C 4,8 C 0,0 km/h (0 Bft)
21.10.2012 08:10 4,4 C 16,4 C 5,7 C 5,0 C 5,0 C 0,6 C 91 % 92 % 16 % 1019,6 hPa 0,0 l/m 0,0 km/h (0 Bft) O-NO 67 5 min 0,0 UV-I 3,1 C 5,0 C 0,0 km/h (0 Bft)
21.10.2012 08:15 4,4 C 16,4 C 5,7 C 5,1 C 5,1 C 0,7 C 91 % 92 % 18 % 1019,6 hPa 0,0 l/m 0,0 km/h (0 Bft) NW 315 5 min 0,0 UV-I 3,1 C 5,1 C 0,0 km/h (0 Bft)
21.10.2012 08:20 4,4 C 16,3 C 5,7 C 5,1 C 5,1 C 0,7 C 91 % 92 % 18 % 1019,6 hPa 0,0 l/m 0,0 km/h (0 Bft) W-SW 247 0 min 0,0 UV-I 3,1 C 5,1 C 0,0 km/h (0 Bft)
21.10.2012 08:25 4,3 C 16,3 C 5,7 C 5,0 C 5,0 C 0,7 C 91 % 92 % 18 % 1019,7 hPa 0,0 l/m 0,0 km/h (0 Bft) SW 225 0 min 0,0 UV-I 3,0 C 5,0 C 0,0 km/h (0 Bft)
21.10.2012 08:30 4,3 C 16,3 C 5,7 C 4,9 C 4,9 C 0,6 C 91 % 92 % 16 % 1019,7 hPa 0,0 l/m 0,0 km/h (0 Bft) W-SW 247 0 min 0,0 UV-I 3,0 C 4,9 C 0,0 km/h (0 Bft)
21.10.2012 08:35 4,3 C 16,2 C 5,6 C 4,8 C 4,8 C 0,5 C 91 % 92 % 13 % 1019,7 hPa 0,0 l/m 0,0 km/h (0 Bft) W-SW 247 0 min 0,0 UV-I 3,0 C 4,8 C 0,0 km/h (0 Bft)
21.10.2012 08:40 4,1 C 16,3 C 5,6 C 4,8 C 4,8 C 0,7 C 91 % 92 % 18 % 1019,7 hPa 0,0 l/m 0,0 km/h (0 Bft) W 270 0 min 0,0 UV-I 2,8 C 4,8 C 0,0 km/h (0 Bft)
21.10.2012 08:45 4,1 C 16,3 C 5,8 C 5,0 C 5,0 C 0,9 C 91 % 92 % 24 % 1020,5 hPa 0,0 l/m 0,0 km/h (0 Bft) N-NO 22 0 min 0,0 UV-I 2,8 C 5,0 C 0,0 km/h (0 Bft)
21.10.2012 08:50 4,3 C 16,3 C 5,9 C 5,3 C 5,3 C 1,0 C 91 % 92 % 26 % 1020,5 hPa 0,0 l/m 0,0 km/h (0 Bft) SW 225 0 min 0,0 UV-I 3,0 C 5,3 C 0,0 km/h (0 Bft)
21.10.2012 08:55 4,3 C 16,3 C 5,9 C 5,4 C 5,4 C 1,1 C 91 % 92 % 29 % 1020,5 hPa 0,0 l/m 0,0 km/h (0 Bft) SW 225 0 min 0,0 UV-I 3,0 C 5,4 C 0,0 km/h (0 Bft)
21.10.2012 09:00 4,4 C 16,3 C 6,1 C 5,6 C 5,6 C 1,2 C 91 % 92 % 32 % 1020,5 hPa 0,0 l/m 0,0 km/h (0 Bft) S-SW 202 0 min 0,0 UV-I 3,1 C 5,6 C 0,0 km/h (0 Bft)
21.10.2012 09:05 4,7 C 16,3 C 6,4 C 6,0 C 6,0 C 1,3 C 92 % 93 % 34 % 1020,0 hPa 0,0 l/m 0,0 km/h (0 Bft) O 90 0 min 0,0 UV-I 3,5 C 6,0 C 0,0 km/h (0 Bft)
21.10.2012 09:10 4,7 C 16,3 C 6,4 C 6,0 C 6,0 C 1,3 C 92 % 93 % 34 % 1020,0 hPa 0,0 l/m 0,0 km/h (0 Bft) O 90 0 min 0,0 UV-I 3,5 C 6,0 C 0,0 km/h (0 Bft)
21.10.2012 09:15 4,7 C 16,3 C 6,7 C 6,1 C 6,1 C 1,4 C 92 % 93 % 37 % 1020,0 hPa 0,0 l/m 0,0 km/h (0 Bft) O 90 0 min 0,0 UV-I 3,5 C 6,1 C 0,0 km/h (0 Bft)
21.10.2012 09:20 4,9 C 16,2 C 6,7 C 6,4 C 6,4 C 1,5 C 92 % 93 % 39 % 1020,0 hPa 0,0 l/m 0,0 km/h (0 Bft) W-SW 247 0 min 0,0 UV-I 3,7 C 6,4 C 0,0 km/h (0 Bft)
21.10.2012 09:25 4,8 C 16,2 C 6,8 C 6,5 C 6,5 C 1,7 C 92 % 93 % 45 % 1020,3 hPa 0,0 l/m 0,0 km/h (0 Bft) SW 225 0 min 0,0 UV-I 3,6 C 6,5 C 0,0 km/h (0 Bft)
21.10.2012 09:30 5,1 C 16,2 C 6,9 C 6,9 C 6,9 C 1,8 C 92 % 92 % 47 % 1020,3 hPa 0,0 l/m 0,0 km/h (0 Bft) NW 315 0 min 0,0 UV-I 3,9 C 6,9 C 0,0 km/h (0 Bft)
21.10.2012 09:35 5,1 C 16,2 C 7,0 C 7,0 C 7,0 C 1,9 C 92 % 92 % 50 % 1020,3 hPa 0,0 l/m 0,0 km/h (0 Bft) W-SW 247 0 min 0,0 UV-I 3,9 C 7,0 C 0,0 km/h (0 Bft)
21.10.2012 09:40 5,2 C 16,2 C 7,2 C 7,2 C 7,2 C 2,0 C 92 % 93 % 53 % 1020,3 hPa 0,0 l/m 0,0 km/h (0 Bft) W-SW 247 0 min 0,0 UV-I 4,0 C 7,2 C 0,0 km/h (0 Bft)
21.10.2012 09:45 5,5 C 16,2 C 7,4 C 7,4 C 7,4 C 1,9 C 92 % 93 % 50 % 1020,1 hPa 0,0 l/m 0,0 km/h (0 Bft) SW 225 0 min 0,0 UV-I 4,3 C 7,4 C 0,0 km/h (0 Bft)
21.10.2012 09:50 5,7 C 16,1 C 7,5 C 7,6 C 7,6 C 1,9 C 92 % 93 % 50 % 1020,1 hPa 0,0 l/m 0,0 km/h (0 Bft) W 270 0 min 0,0 UV-I 4,5 C 7,6 C 0,0 km/h (0 Bft)
21.10.2012 09:55 5,9 C 16,1 C 7,7 C 7,8 C 7,8 C 1,9 C 92 % 93 % 50 % 1020,1 hPa 0,0 l/m 0,0 km/h (0 Bft) W 270 0 min 0,0 UV-I 4,7 C 7,8 C 0,0 km/h (0 Bft)
21.10.2012 10:00 6,0 C 16,1 C 7,9 C 7,9 C 7,9 C 1,9 C 92 % 93 % 50 % 1020,1 hPa 0,0 l/m 0,0 km/h (0 Bft) SW 225 0 min 0,1 UV-I 4,8 C 7,9 C 0,0 km/h (0 Bft)
21.10.2012 10:05 6,5 C 16,1 C 8,3 C 8,3 C 8,3 C 1,8 C 92 % 93 % 47 % 1020,6 hPa 0,0 l/m 0,0 km/h (0 Bft) SW 225 0 min 0,1 UV-I 5,3 C 8,3 C 0,0 km/h (0 Bft)
21.10.2012 10:10 6,5 C 16,1 C 8,3 C 8,3 C 8,3 C 1,8 C 92 % 93 % 47 % 1020,6 hPa 0,0 l/m 0,0 km/h (0 Bft) SW 225 0 min 0,1 UV-I 5,3 C 8,3 C 0,0 km/h (0 Bft)
21.10.2012 10:15 6,7 C 16,1 C 8,3 C 8,5 C 8,5 C 1,8 C 92 % 93 % 47 % 1020,6 hPa 0,0 l/m 0,0 km/h (0 Bft) W-SW 247 0 min 0,2 UV-I 5,5 C 8,5 C 0,0 km/h (0 Bft)
21.10.2012 10:20 7,0 C 16,1 C 8,5 C 8,6 C 8,6 C 1,6 C 92 % 93 % 42 % 1020,6 hPa 0,0 l/m 0,0 km/h (0 Bft) SW 225 0 min 0,2 UV-I 5,8 C 8,6 C 0,0 km/h (0 Bft)
21.10.2012 10:25 7,1 C 16,0 C 8,6 C 8,8 C 8,8 C 1,7 C 93 % 93 % 45 % 1019,9 hPa 0,0 l/m 0,0 km/h (0 Bft) W-SW 247 0 min 0,2 UV-I 6,0 C 8,8 C 0,0 km/h (0 Bft)
21.10.2012 10:30 7,3 C 15,9 C 8,8 C 9,2 C 9,2 C 1,9 C 93 % 93 % 50 % 1019,9 hPa 0,0 l/m 0,0 km/h (0 Bft) SW 225 0 min 0,2 UV-I 6,2 C 9,2 C 0,0 km/h (0 Bft)
21.10.2012 10:35 7,5 C 16,0 C 8,9 C 9,4 C 9,4 C 1,9 C 93 % 93 % 50 % 1019,9 hPa 0,0 l/m 0,0 km/h (0 Bft) W-SW 247 0 min 0,3 UV-I 6,4 C 9,4 C 0,0 km/h (0 Bft)
21.10.2012 10:40 7,6 C 16,0 C 9,1 C 9,7 C 9,7 C 2,1 C 93 % 93 % 55 % 1019,9 hPa 0,0 l/m 0,0 km/h (0 Bft) SW 225 0 min 0,3 UV-I 6,5 C 9,7 C 0,0 km/h (0 Bft)
21.10.2012 10:45 7,9 C 16,0 C 9,3 C 10,2 C 10,2 C 2,3 C 93 % 93 % 61 % 1019,8 hPa 0,0 l/m 0,0 km/h (0 Bft) S 180 0 min 0,3 UV-I 6,8 C 10,2 C 0,0 km/h (0 Bft)
21.10.2012 10:50 8,0 C 16,0 C 9,5 C 10,4 C 10,4 C 2,4 C 93 % 93 % 63 % 1019,8 hPa 0,0 l/m 0,0 km/h (0 Bft) SW 225 0 min 0,4 UV-I 6,9 C 10,4 C 0,0 km/h (0 Bft)
21.10.2012 10:55 8,3 C 15,9 C 9,7 C 10,7 C 10,7 C 2,4 C 93 % 93 % 63 % 1019,8 hPa 0,0 l/m 0,0 km/h (0 Bft) W-SW 247 0 min 0,4 UV-I 7,2 C 10,7 C 0,0 km/h (0 Bft)
21.10.2012 11:00 8,4 C 15,9 C 9,9 C 10,8 C 10,8 C 2,4 C 93 % 93 % 63 % 1019,8 hPa 0,0 l/m 0,0 km/h (0 Bft) SW 225 0 min 0,4 UV-I 7,3 C 10,8 C 0,0 km/h (0 Bft)
21.10.2012 11:05 8,8 C 15,9 C 10,3 C 11,5 C 11,5 C 2,7 C 93 % 93 % 71 % 1019,8 hPa 0,0 l/m 0,0 km/h (0 Bft) SW 225 0 min 0,5 UV-I 7,7 C 11,5 C 0,0 km/h (0 Bft)
21.10.2012 11:10 8,8 C 15,9 C 10,3 C 11,5 C 11,5 C 2,7 C 93 % 93 % 71 % 1019,8 hPa 0,0 l/m 0,0 km/h (0 Bft) SW 225 0 min 0,5 UV-I 7,7 C 11,5 C 0,0 km/h (0 Bft)
21.10.2012 11:15 9,2 C 15,9 C 10,7 C 11,9 C 11,9 C 2,7 C 93 % 93 % 71 % 1019,8 hPa 0,0 l/m 0,0 km/h (0 Bft) S-SW 202 0 min 0,5 UV-I 8,1 C 11,9 C 0,0 km/h (0 Bft)
21.10.2012 11:20 9,2 C 15,9 C 10,7 C 11,9 C 11,9 C 2,7 C 93 % 93 % 71 % 1019,8 hPa 0,0 l/m 0,0 km/h (0 Bft) S-SW 202 0 min 0,5 UV-I 8,1 C 11,9 C 0,0 km/h (0 Bft)
21.10.2012 11:25 9,8 C 15,7 C 11,1 C 13,1 C 13,1 C 3,3 C 93 % 92 % 87 % 1019,3 hPa 0,0 l/m 0,0 km/h (0 Bft) SW 225 5 min 0,6 UV-I 8,7 C 13,1 C 0,0 km/h (0 Bft)
21.10.2012 11:30 9,8 C 15,7 C 11,1 C 13,1 C 13,1 C 3,3 C 93 % 92 % 87 % 1019,3 hPa 0,0 l/m 0,0 km/h (0 Bft) SW 225 5 min 0,6 UV-I 8,7 C 13,1 C 0,0 km/h (0 Bft)
21.10.2012 11:35 9,9 C 15,8 C 11,2 C 13,7 C 13,7 C 3,8 C 93 % 92 % 100 % 1019,3 hPa 0,0 l/m 0,0 km/h (0 Bft) SW 225 5 min 0,6 UV-I 8,8 C 13,7 C 0,0 km/h (0 Bft)
21.10.2012 11:40 10,2 C 15,8 C 11,6 C 14,0 C 14,0 C 3,8 C 93 % 92 % 100 % 1019,3 hPa 0,0 l/m 0,0 km/h (0 Bft) W 270 5 min 0,6 UV-I 9,1 C 14,0 C 0,0 km/h (0 Bft)
21.10.2012 11:45 10,4 C 15,8 C 11,6 C 14,7 C 14,7 C 4,3 C 93 % 92 % 100 % 1019,1 hPa 0,0 l/m 0,0 km/h (0 Bft) S 180 5 min 0,7 UV-I 9,3 C 14,7 C 0,0 km/h (0 Bft)
21.10.2012 11:50 10,9 C 15,8 C 11,9 C 14,9 C 14,9 C 4,0 C 93 % 92 % 100 % 1019,1 hPa 0,0 l/m 0,0 km/h (0 Bft) SW 225 5 min 0,7 UV-I 9,8 C 14,9 C 0,0 km/h (0 Bft)
21.10.2012 11:55 11,1 C 15,8 C 12,1 C 15,1 C 15,1 C 4,0 C 93 % 92 % 100 % 1019,1 hPa 0,0 l/m 0,0 km/h (0 Bft) W 270 5 min 0,7 UV-I 10,0 C 15,1 C 0,0 km/h (0 Bft)
21.10.2012 12:00 11,5 C 15,8 C 12,4 C 15,4 C 15,4 C 3,9 C 93 % 92 % 100 % 1019,1 hPa 0,0 l/m 0,0 km/h (0 Bft) S-SW 202 5 min 0,7 UV-I 10,4 C 15,4 C 0,0 km/h (0 Bft)
21.10.2012 12:05 12,3 C 15,9 C 12,9 C 17,3 C 17,3 C 5,0 C 93 % 92 % 100 % 1018,6 hPa 0,0 l/m 0,0 km/h (0 Bft) O 90 5 min 0,8 UV-I 11,2 C 17,3 C 0,0 km/h (0 Bft)
21.10.2012 12:10 12,3 C 15,9 C 12,9 C 17,3 C 17,3 C 5,0 C 93 % 92 % 100 % 1018,6 hPa 0,0 l/m 0,0 km/h (0 Bft) O 90 5 min 0,8 UV-I 11,2 C 17,3 C 0,0 km/h (0 Bft)
21.10.2012 12:15 12,8 C 15,7 C 13,7 C 18,6 C 18,6 C 5,8 C 93 % 91 % 100 % 1018,6 hPa 0,0 l/m 0,0 km/h (0 Bft) O 90 5 min 1,1 UV-I 11,7 C 18,6 C 0,0 km/h (0 Bft)
21.10.2012 12:20 13,3 C 15,7 C 13,9 C 19,6 C 19,6 C 6,3 C 92 % 92 % 100 % 1018,4 hPa 0,0 l/m 0,0 km/h (0 Bft) O-NO 67 5 min 1,1 UV-I 12,0 C 19,6 C 0,0 km/h (0 Bft)
21.10.2012 12:25 14,0 C 15,7 C 14,4 C 21,0 C 21,0 C 7,0 C 92 % 91 % 100 % 1018,4 hPa 0,0 l/m 0,0 km/h (0 Bft) O 90 5 min 1,1 UV-I 12,7 C 21,0 C 0,0 km/h (0 Bft)
21.10.2012 12:30 14,2 C 15,7 C 14,6 C 21,8 C 21,8 C 7,6 C 91 % 90 % 100 % 1018,4 hPa 0,0 l/m 0,0 km/h (0 Bft) O 90 5 min 1,0 UV-I 12,8 C 21,8 C 0,0 km/h (0 Bft)
21.10.2012 12:35 14,7 C 15,8 C 15,0 C 22,3 C 22,3 C 7,6 C 89 % 89 % 100 % 1018,4 hPa 0,0 l/m 0,0 km/h (0 Bft) O 90 5 min 1,1 UV-I 12,9 C 22,3 C 0,0 km/h (0 Bft)
21.10.2012 12:46 15,2 C 15,8 C 15,2 C 23,0 C 23,0 C 7,8 C 86 % 87 % 100 % 1018,2 hPa 0,0 l/m 0,0 km/h (0 Bft) N 0 11 min 1,0 UV-I 12,9 C 23,0 C 0,0 km/h (0 Bft)
21.10.2012 13:00 16,2 C 15,8 C 15,9 C 23,7 C 23,7 C 7,5 C 81 % 85 % 100 % 1018,2 hPa 0,0 l/m 0,0 km/h (0 Bft) O-SO 112 14 min 1,0 UV-I 12,9 C 23,7 C 0,0 km/h (0 Bft)
21.10.2012 13:05 16,6 C 15,8 C 15,9 C 24,6 C 24,6 C 8,0 C 80 % 85 % 100 % 1018,2 hPa 0,0 l/m 0,0 km/h (0 Bft) NO 45 5 min 1,0 UV-I 13,1 C 24,6 C 0,0 km/h (0 Bft)
21.10.2012 13:10 16,8 C 15,8 C 16,0 C 24,9 C 24,9 C 8,1 C 79 % 85 % 100 % 1018,2 hPa 0,0 l/m 0,0 km/h (0 Bft) S 180 5 min 0,9 UV-I 13,1 C 24,9 C 0,0 km/h (0 Bft)
21.10.2012 13:15 17,1 C 15,9 C 16,3 C 25,2 C 25,2 C 8,1 C 78 % 84 % 100 % 1018,2 hPa 0,0 l/m 0,0 km/h (0 Bft) NW 315 5 min 0,9 UV-I 13,2 C 25,2 C 0,0 km/h (0 Bft)
21.10.2012 13:20 17,4 C 15,8 C 16,6 C 25,1 C 25,1 C 7,7 C 77 % 84 % 100 % 1018,0 hPa 0,0 l/m 0,0 km/h (0 Bft) N-NW 337 5 min 0,9 UV-I 13,3 C 25,1 C 0,0 km/h (0 Bft)
21.10.2012 13:25 17,7 C 15,9 C 16,9 C 24,9 C 24,9 C 7,2 C 76 % 83 % 100 % 1018,0 hPa 0,0 l/m 0,0 km/h (0 Bft) NW 315 5 min 0,9 UV-I 13,4 C 24,9 C 0,0 km/h (0 Bft)
21.10.2012 13:30 17,8 C 15,9 C 16,8 C 24,7 C 24,7 C 6,9 C 76 % 82 % 100 % 1018,0 hPa 0,0 l/m 0,0 km/h (0 Bft) O-NO 67 5 min 0,9 UV-I 13,5 C 24,7 C 0,0 km/h (0 Bft)
21.10.2012 13:35 18,0 C 15,9 C 17,0 C 24,4 C 24,4 C 6,4 C 75 % 82 % 100 % 1018,0 hPa 0,0 l/m 0,0 km/h (0 Bft) O-NO 67 5 min 0,9 UV-I 13,5 C 24,4 C 0,0 km/h (0 Bft)
21.10.2012 13:40 18,2 C 15,9 C 17,2 C 23,2 C 23,2 C 5,0 C 75 % 82 % 100 % 1017,5 hPa 0,0 l/m 0,0 km/h (0 Bft) NO 45 5 min 0,9 UV-I 13,7 C 23,2 C 0,0 km/h (0 Bft)
21.10.2012 13:45 18,3 C 15,9 C 17,2 C 22,2 C 22,2 C 3,9 C 75 % 82 % 100 % 1017,5 hPa 0,0 l/m 0,0 km/h (0 Bft) W 270 5 min 0,9 UV-I 13,8 C 22,2 C 0,0 km/h (0 Bft)
21.10.2012 13:50 18,4 C 15,8 C 17,4 C 22,2 C 22,2 C 3,8 C 74 % 82 % 100 % 1017,5 hPa 0,0 l/m 0,0 km/h (0 Bft) SO 135 5 min 0,9 UV-I 13,7 C 22,2 C 0,0 km/h (0 Bft)
21.10.2012 13:55 18,7 C 15,9 C 17,6 C 22,2 C 22,2 C 3,5 C 74 % 81 % 92 % 1017,5 hPa 0,0 l/m 0,0 km/h (0 Bft) O 90 5 min 0,9 UV-I 14,0 C 22,2 C 0,0 km/h (0 Bft)
21.10.2012 14:00 18,8 C 15,9 C 17,7 C 22,4 C 22,4 C 3,6 C 73 % 81 % 95 % 1017,6 hPa 0,0 l/m 0,0 km/h (0 Bft) N 360 5 min 0,8 UV-I 13,9 C 22,4 C 0,0 km/h (0 Bft)
21.10.2012 14:05 19,2 C 15,9 C 18,0 C 23,1 C 23,1 C 3,9 C 72 % 81 % 100 % 1017,6 hPa 0,0 l/m 0,0 km/h (0 Bft) SO 135 5 min 0,8 UV-I 14,0 C 23,1 C 0,0 km/h (0 Bft)
21.10.2012 14:10 19,3 C 15,9 C 18,1 C 23,0 C 23,0 C 3,7 C 72 % 79 % 97 % 1017,6 hPa 0,0 l/m 0,0 km/h (0 Bft) W-SW 247 5 min 0,8 UV-I 14,1 C 23,0 C 0,0 km/h (0 Bft)
21.10.2012 14:15 19,6 C 15,9 C 18,5 C 22,5 C 22,5 C 2,9 C 70 % 79 % 76 % 1017,6 hPa 0,0 l/m 0,0 km/h (0 Bft) S-SO 157 0 min 0,8 UV-I 14,0 C 22,5 C 0,0 km/h (0 Bft)
21.10.2012 14:20 19,7 C 15,9 C 18,5 C 22,1 C 22,1 C 2,4 C 70 % 78 % 63 % 1017,5 hPa 0,0 l/m 0,0 km/h (0 Bft) W-NW 292 0 min 0,8 UV-I 14,1 C 22,1 C 0,0 km/h (0 Bft)
21.10.2012 14:25 20,0 C 16,0 C 18,8 C 22,9 C 22,9 C 2,9 C 69 % 77 % 76 % 1017,5 hPa 0,0 l/m 0,0 km/h (0 Bft) N-NW 337 0 min 0,7 UV-I 14,1 C 22,9 C 0,0 km/h (0 Bft)
21.10.2012 14:30 20,0 C 16,0 C 18,9 C 22,6 C 22,6 C 2,6 C 66 % 73 % 68 % 1017,5 hPa 0,0 l/m 0,0 km/h (0 Bft) O 90 0 min 0,7 UV-I 13,4 C 22,6 C 0,0 km/h (0 Bft)
21.10.2012 14:35 20,1 C 16,0 C 19,0 C 22,3 C 22,3 C 2,2 C 63 % 71 % 58 % 1017,5 hPa 0,0 l/m 0,0 km/h (0 Bft) O 90 0 min 0,7 UV-I 12,8 C 22,3 C 0,0 km/h (0 Bft)
21.10.2012 14:40 20,3 C 16,0 C 19,1 C 23,4 C 23,4 C 3,1 C 64 % 72 % 82 % 1017,2 hPa 0,0 l/m 0,0 km/h (0 Bft) N-NW 337 0 min 0,7 UV-I 13,3 C 23,4 C 0,0 km/h (0 Bft)
21.10.2012 14:45 20,2 C 16,0 C 19,3 C 24,6 C 24,6 C 4,4 C 64 % 72 % 100 % 1017,2 hPa 0,0 l/m 0,0 km/h (0 Bft) O-SO 112 5 min 0,7 UV-I 13,2 C 24,6 C 0,0 km/h (0 Bft)
21.10.2012 14:50 20,3 C 16,0 C 19,2 C 24,6 C 24,6 C 4,3 C 64 % 72 % 100 % 1017,2 hPa 0,0 l/m 0,0 km/h (0 Bft) NO 45 5 min 0,6 UV-I 13,3 C 24,6 C 2,1 km/h (1 Bft)
21.10.2012 14:55 20,3 C 16,0 C 19,3 C 24,4 C 24,4 C 4,1 C 64 % 71 % 100 % 1017,2 hPa 0,0 l/m 0,0 km/h (0 Bft) O-NO 67 5 min 0,6 UV-I 13,3 C 24,4 C 0,0 km/h (0 Bft)
21.10.2012 15:00 20,3 C 16,0 C 19,3 C 24,4 C 24,4 C 4,1 C 64 % 71 % 100 % 1017,4 hPa 0,0 l/m 0,0 km/h (0 Bft) SO 135 5 min 0,6 UV-I 13,3 C 24,4 C 0,0 km/h (0 Bft)
21.10.2012 15:05 20,4 C 16,0 C 19,5 C 25,0 C 25,0 C 4,6 C 64 % 70 % 100 % 1017,4 hPa 0,0 l/m 0,0 km/h (0 Bft) O-NO 67 5 min 0,5 UV-I 13,4 C 25,0 C 0,0 km/h (0 Bft)
21.10.2012 15:10 20,4 C 16,0 C 19,5 C 25,4 C 25,4 C 5,0 C 64 % 70 % 100 % 1017,4 hPa 0,0 l/m 0,3 km/h (0 Bft) O-NO 67 5 min 0,5 UV-I 13,4 C 25,4 C 5,3 km/h (1 Bft)
21.10.2012 15:15 20,5 C 16,0 C 19,6 C 25,1 C 25,1 C 4,6 C 62 % 68 % 100 % 1017,4 hPa 0,0 l/m 2,3 km/h (1 Bft) N-NO 22 5 min 0,5 UV-I 13,0 C 25,1 C 2,7 km/h (1 Bft)
21.10.2012 15:20 20,4 C 16,1 C 19,6 C 24,6 C 24,6 C 4,2 C 59 % 65 % 100 % 1017,4 hPa 0,0 l/m 5,3 km/h (1 Bft) O 90 5 min 0,5 UV-I 12,1 C 24,6 C 9,8 km/h (2 Bft)
21.10.2012 15:25 20,3 C 16,2 C 19,5 C 23,8 C 23,8 C 3,5 C 58 % 65 % 92 % 1017,4 hPa 0,0 l/m 7,1 km/h (2 Bft) O 90 5 min 0,4 UV-I 11,8 C 23,8 C 7,7 km/h (2 Bft)
21.10.2012 15:30 20,3 C 16,2 C 19,5 C 23,6 C 23,6 C 3,3 C 59 % 65 % 87 % 1017,4 hPa 0,0 l/m 6,6 km/h (2 Bft) O-SO 112 5 min 0,4 UV-I 12,0 C 23,6 C 4,8 km/h (1 Bft)
21.10.2012 15:35 20,3 C 16,2 C 19,5 C 23,6 C 23,6 C 3,3 C 59 % 65 % 87 % 1017,4 hPa 0,0 l/m 5,6 km/h (1 Bft) O 90 5 min 0,4 UV-I 12,0 C 23,6 C 6,4 km/h (2 Bft)
21.10.2012 15:40 20,3 C 16,2 C 19,5 C 23,5 C 23,5 C 3,2 C 60 % 65 % 84 % 1017,4 hPa 0,0 l/m 5,1 km/h (1 Bft) O-NO 67 5 min 0,4 UV-I 12,3 C 23,5 C 4,2 km/h (1 Bft)
21.10.2012 15:45 20,3 C 16,2 C 19,5 C 23,5 C 23,5 C 3,2 C 59 % 65 % 84 % 1017,4 hPa 0,0 l/m 4,7 km/h (1 Bft) O-NO 67 5 min 0,3 UV-I 12,0 C 23,5 C 5,1 km/h (1 Bft)
21.10.2012 15:50 20,1 C 16,3 C 19,5 C 23,5 C 23,5 C 3,4 C 60 % 65 % 89 % 1017,4 hPa 0,0 l/m 4,3 km/h (1 Bft) O-NO 67 5 min 0,3 UV-I 12,1 C 23,5 C 6,1 km/h (2 Bft)
21.10.2012 15:55 20,1 C 16,3 C 19,3 C 23,4 C 23,4 C 3,3 C 60 % 66 % 87 % 1017,4 hPa 0,0 l/m 4,2 km/h (1 Bft) O-NO 67 5 min 0,2 UV-I 12,1 C 23,4 C 3,9 km/h (1 Bft)
21.10.2012 16:00 20,1 C 16,3 C 19,5 C 23,5 C 23,5 C 3,4 C 62 % 66 % 89 % 1017,8 hPa 0,0 l/m 3,2 km/h (1 Bft) NO 45 5 min 0,2 UV-I 12,6 C 23,5 C 2,9 km/h (1 Bft)
21.10.2012 16:05 20,1 C 16,3 C 19,2 C 23,7 C 23,7 C 3,6 C 62 % 67 % 95 % 1017,8 hPa 0,0 l/m 2,1 km/h (1 Bft) O 90 5 min 0,2 UV-I 12,6 C 23,7 C 4,2 km/h (1 Bft)
21.10.2012 16:10 19,9 C 16,3 C 19,1 C 23,5 C 23,5 C 3,6 C 61 % 66 % 95 % 1017,8 hPa 0,0 l/m 2,9 km/h (1 Bft) O 90 5 min 0,2 UV-I 12,2 C 23,5 C 4,0 km/h (1 Bft)
21.10.2012 16:15 19,7 C 16,3 C 19,0 C 23,2 C 23,2 C 3,5 C 62 % 66 % 92 % 1017,8 hPa 0,0 l/m 3,4 km/h (1 Bft) O-NO 67 5 min 0,1 UV-I 12,2 C 23,2 C 4,7 km/h (1 Bft)
21.10.2012 16:20 19,5 C 16,4 C 18,8 C 22,7 C 22,7 C 3,2 C 62 % 67 % 84 % 1018,1 hPa 0,0 l/m 4,5 km/h (1 Bft) O-NO 67 5 min 0,1 UV-I 12,0 C 22,7 C 5,3 km/h (1 Bft)
21.10.2012 16:25 19,3 C 16,4 C 18,7 C 22,3 C 22,3 C 3,0 C 63 % 68 % 79 % 1018,1 hPa 0,0 l/m 4,8 km/h (1 Bft) W-SW 247 5 min 0,1 UV-I 12,1 C 22,3 C 5,0 km/h (1 Bft)
21.10.2012 16:30 19,3 C 16,4 C 18,5 C 22,1 C 22,1 C 2,8 C 63 % 68 % 74 % 1018,1 hPa 0,0 l/m 4,3 km/h (1 Bft) O 90 5 min 0,0 UV-I 12,1 C 22,1 C 3,4 km/h (1 Bft)
21.10.2012 16:35 19,0 C 16,4 C 18,3 C 22,0 C 22,0 C 3,0 C 65 % 70 % 79 % 1018,1 hPa 0,0 l/m 4,0 km/h (1 Bft) O 90 5 min 0,0 UV-I 12,3 C 22,0 C 4,0 km/h (1 Bft)
21.10.2012 16:40 18,9 C 16,4 C 18,3 C 21,8 C 21,8 C 2,9 C 65 % 70 % 76 % 1017,7 hPa 0,0 l/m 3,5 km/h (1 Bft) O-NO 67 5 min 0,0 UV-I 12,2 C 21,8 C 3,1 km/h (1 Bft)
21.10.2012 16:45 18,7 C 16,5 C 18,0 C 21,5 C 21,5 C 2,8 C 67 % 71 % 74 % 1017,7 hPa 0,0 l/m 3,4 km/h (1 Bft) O-NO 67 5 min 0,0 UV-I 12,4 C 21,5 C 4,5 km/h (1 Bft)
21.10.2012 16:50 18,5 C 16,5 C 18,0 C 21,3 C 21,3 C 2,8 C 67 % 72 % 74 % 1017,7 hPa 0,0 l/m 3,2 km/h (1 Bft) O 90 5 min 0,0 UV-I 12,3 C 21,3 C 5,3 km/h (1 Bft)
21.10.2012 16:55 18,4 C 16,5 C 17,9 C 21,0 C 21,0 C 2,6 C 68 % 72 % 68 % 1017,7 hPa 0,0 l/m 3,7 km/h (1 Bft) O-NO 67 5 min 0,0 UV-I 12,4 C 21,0 C 3,2 km/h (1 Bft)
21.10.2012 17:00 18,3 C 16,5 C 17,7 C 20,7 C 20,7 C 2,4 C 68 % 73 % 63 % 1017,9 hPa 0,0 l/m 3,2 km/h (1 Bft) O-SO 112 5 min 0,0 UV-I 12,3 C 20,7 C 1,8 km/h (1 Bft)
21.10.2012 17:05 18,1 C 16,5 C 17,5 C 20,4 C 20,4 C 2,3 C 69 % 73 % 61 % 1017,9 hPa 0,0 l/m 2,3 km/h (1 Bft) O-SO 112 5 min 0,0 UV-I 12,3 C 20,4 C 2,6 km/h (1 Bft)
21.10.2012 17:10 17,9 C 16,5 C 17,2 C 20,2 C 20,2 C 2,3 C 70 % 74 % 61 % 1017,9 hPa 0,0 l/m 2,1 km/h (1 Bft) O-NO 67 5 min 0,0 UV-I 12,3 C 20,2 C 1,8 km/h (1 Bft)
21.10.2012 17:15 17,7 C 16,6 C 17,0 C 20,0 C 20,0 C 2,3 C 70 % 75 % 61 % 1017,9 hPa 0,0 l/m 1,9 km/h (1 Bft) O-NO 67 5 min 0,0 UV-I 12,2 C 20,0 C 2,4 km/h (1 Bft)
21.10.2012 17:20 17,5 C 16,6 C 16,9 C 19,6 C 19,6 C 2,1 C 71 % 75 % 55 % 1017,9 hPa 0,0 l/m 1,4 km/h (1 Bft) O-SO 112 5 min 0,0 UV-I 12,2 C 19,6 C 2,9 km/h (1 Bft)
21.10.2012 17:25 17,3 C 16,6 C 16,5 C 19,2 C 19,2 C 1,9 C 72 % 76 % 50 % 1017,9 hPa 0,0 l/m 1,4 km/h (1 Bft) O-SO 112 5 min 0,0 UV-I 12,2 C 19,2 C 1,8 km/h (1 Bft)
21.10.2012 17:30 17,1 C 16,6 C 16,5 C 18,9 C 18,9 C 1,8 C 72 % 77 % 47 % 1017,9 hPa 0,0 l/m 1,6 km/h (1 Bft) O-SO 112 5 min 0,0 UV-I 12,0 C 18,9 C 1,8 km/h (1 Bft)
21.10.2012 17:35 17,0 C 16,6 C 16,5 C 18,6 C 18,6 C 1,6 C 73 % 77 % 42 % 1017,9 hPa 0,0 l/m 1,6 km/h (1 Bft) O-NO 67 5 min 0,0 UV-I 12,1 C 18,6 C 0,0 km/h (0 Bft)
21.10.2012 17:40 16,8 C 16,6 C 16,3 C 18,0 C 18,0 C 1,2 C 73 % 77 % 32 % 1018,8 hPa 0,0 l/m 1,6 km/h (1 Bft) O-NO 67 5 min 0,0 UV-I 11,9 C 18,0 C 2,6 km/h (1 Bft)
21.10.2012 17:45 16,7 C 16,7 C 15,9 C 17,3 C 17,3 C 0,6 C 74 % 78 % 16 % 1018,8 hPa 0,0 l/m 1,9 km/h (1 Bft) O 90 5 min 0,0 UV-I 12,0 C 17,3 C 2,1 km/h (1 Bft)
21.10.2012 17:50 16,5 C 16,7 C 15,5 C 16,9 C 16,9 C 0,4 C 75 % 79 % 11 % 1018,8 hPa 0,0 l/m 2,1 km/h (1 Bft) O 90 5 min 0,0 UV-I 12,1 C 16,9 C 3,2 km/h (1 Bft)
21.10.2012 17:55 16,3 C 16,7 C 15,5 C 16,4 C 16,4 C 0,1 C 76 % 80 % 0 % 1018,8 hPa 0,0 l/m 2,4 km/h (1 Bft) O-SO 112 0 min 0,0 UV-I 12,1 C 16,4 C 3,4 km/h (1 Bft)
21.10.2012 18:00 16,2 C 16,7 C 15,2 C 16,0 C 15,7 C 0,0 C 77 % 80 % 0 % 1018,2 hPa 0,0 l/m 3,1 km/h (1 Bft) O 90 0 min 0,0 UV-I 12,2 C 15,7 C 2,4 km/h (1 Bft)
21.10.2012 18:05 15,9 C 16,8 C 15,1 C 15,7 C 15,2 C 0,0 C 76 % 80 % 0 % 1018,2 hPa 0,0 l/m 2,4 km/h (1 Bft) O 90 0 min 0,0 UV-I 11,7 C 15,2 C 1,9 km/h (1 Bft)
21.10.2012 18:10 15,9 C 16,9 C 14,5 C 15,5 C 14,7 C 0,0 C 77 % 80 % 0 % 1018,2 hPa 0,0 l/m 1,1 km/h (1 Bft) O 90 0 min 0,0 UV-I 11,9 C 14,7 C 0,0 km/h (0 Bft)
21.10.2012 18:15 15,5 C 16,9 C 14,1 C 15,1 C 14,4 C 0,0 C 78 % 81 % 0 % 1018,2 hPa 0,0 l/m 0,5 km/h (0 Bft) O-NO 67 0 min 0,0 UV-I 11,7 C 14,4 C 2,3 km/h (1 Bft)
21.10.2012 18:20 15,3 C 16,9 C 14,0 C 14,9 C 14,1 C 0,0 C 78 % 82 % 0 % 1017,8 hPa 0,0 l/m 1,4 km/h (1 Bft) O-NO 67 0 min 0,0 UV-I 11,5 C 14,1 C 2,3 km/h (1 Bft)
21.10.2012 18:25 15,1 C 16,9 C 13,7 C 14,7 C 13,9 C 0,0 C 79 % 82 % 0 % 1017,8 hPa 0,0 l/m 1,9 km/h (1 Bft) O-NO 67 0 min 0,0 UV-I 11,5 C 13,9 C 1,8 km/h (1 Bft)
21.10.2012 18:30 14,8 C 16,9 C 13,5 C 14,4 C 13,7 C 0,0 C 79 % 82 % 0 % 1017,8 hPa 0,0 l/m 1,8 km/h (1 Bft) O 90 0 min 0,0 UV-I 11,2 C 13,7 C 2,9 km/h (1 Bft)
21.10.2012 18:35 14,4 C 17,0 C 13,3 C 14,1 C 13,4 C 0,0 C 79 % 83 % 0 % 1017,8 hPa 0,0 l/m 1,6 km/h (1 Bft) NO 45 0 min 0,0 UV-I 10,8 C 13,4 C 0,0 km/h (0 Bft)
21.10.2012 18:40 14,2 C 17,0 C 13,2 C 13,8 C 12,9 C 0,0 C 79 % 83 % 0 % 1018,6 hPa 0,0 l/m 0,6 km/h (0 Bft) O-NO 67 0 min 0,0 UV-I 10,6 C 12,9 C 0,0 km/h (0 Bft)
21.10.2012 18:45 13,9 C 17,0 C 12,8 C 13,4 C 12,5 C 0,0 C 79 % 83 % 0 % 1018,6 hPa 0,0 l/m 0,2 km/h (0 Bft) O 90 0 min 0,0 UV-I 10,3 C 12,5 C 2,6 km/h (1 Bft)
21.10.2012 18:50 13,5 C 17,0 C 12,6 C 13,1 C 12,2 C 0,0 C 80 % 84 % 0 % 1018,6 hPa 0,0 l/m 0,5 km/h (0 Bft) O-NO 67 0 min 0,0 UV-I 10,1 C 12,2 C 0,0 km/h (0 Bft)
21.10.2012 18:56 13,0 C 17,1 C 12,4 C 12,7 C 12,0 C 0,0 C 80 % 84 % 0 % 1018,6 hPa 0,0 l/m 0,6 km/h (0 Bft) O-NO 67 0 min 0,0 UV-I 9,6 C 12,0 C 0,0 km/h (0 Bft)
21.10.2012 19:00 12,8 C 17,1 C 12,1 C 12,5 C 11,8 C 0,0 C 81 % 84 % 0 % 1018,8 hPa 0,0 l/m 0,2 km/h (0 Bft) O 90 0 min 0,0 UV-I 9,6 C 11,8 C 0,0 km/h (0 Bft)
21.10.2012 19:05 12,5 C 17,2 C 11,8 C 12,3 C 11,8 C 0,0 C 81 % 85 % 0 % 1018,8 hPa 0,0 l/m 0,3 km/h (0 Bft) O-NO 67 0 min 0,0 UV-I 9,3 C 11,8 C 0,0 km/h (0 Bft)
21.10.2012 19:10 12,2 C 17,2 C 11,7 C 12,0 C 11,6 C 0,0 C 81 % 85 % 0 % 1018,8 hPa 0,0 l/m 0,3 km/h (0 Bft) O 90 0 min 0,0 UV-I 9,0 C 11,6 C 0,0 km/h (0 Bft)
21.10.2012 19:15 11,9 C 17,2 C 11,6 C 11,8 C 11,5 C 0,0 C 82 % 85 % 0 % 1018,8 hPa 0,0 l/m 0,3 km/h (0 Bft) O-NO 67 0 min 0,0 UV-I 8,9 C 11,5 C 0,0 km/h (0 Bft)
21.10.2012 19:20 11,7 C 17,2 C 11,4 C 11,5 C 11,2 C 0,0 C 82 % 86 % 0 % 1018,4 hPa 0,0 l/m 0,0 km/h (0 Bft) O-NO 67 0 min 0,0 UV-I 8,7 C 11,2 C 0,0 km/h (0 Bft)
21.10.2012 19:25 11,5 C 17,2 C 11,2 C 11,3 C 10,9 C 0,0 C 82 % 85 % 0 % 1018,4 hPa 0,0 l/m 0,0 km/h (0 Bft) O 90 0 min 0,0 UV-I 8,5 C 10,9 C 0,0 km/h (0 Bft)
21.10.2012 19:30 11,3 C 17,2 C 11,1 C 11,1 C 10,7 C 0,0 C 83 % 86 % 0 % 1018,4 hPa 0,0 l/m 0,0 km/h (0 Bft) O 90 0 min 0,0 UV-I 8,5 C 10,7 C 0,0 km/h (0 Bft)
21.10.2012 19:35 10,9 C 17,2 C 10,9 C 10,8 C 10,6 C 0,0 C 83 % 86 % 0 % 1018,4 hPa 0,0 l/m 0,0 km/h (0 Bft) O-NO 67 0 min 0,0 UV-I 8,1 C 10,6 C 0,0 km/h (0 Bft)
21.10.2012 19:40 10,8 C 17,3 C 10,8 C 10,7 C 10,5 C 0,0 C 83 % 86 % 0 % 1018,9 hPa 0,0 l/m 0,0 km/h (0 Bft) O 90 0 min 0,0 UV-I 8,0 C 10,5 C 0,0 km/h (0 Bft)
21.10.2012 19:45 10,6 C 17,3 C 10,5 C 10,6 C 10,5 C 0,0 C 84 % 86 % 0 % 1018,9 hPa 0,0 l/m 0,0 km/h (0 Bft) O-NO 67 0 min 0,0 UV-I 8,0 C 10,5 C 0,0 km/h (0 Bft)
21.10.2012 19:50 10,4 C 17,3 C 10,4 C 10,4 C 10,4 C 0,0 C 84 % 87 % 0 % 1018,9 hPa 0,0 l/m 0,0 km/h (0 Bft) O-NO 67 0 min 0,0 UV-I 7,8 C 10,4 C 0,0 km/h (0 Bft)
21.10.2012 19:55 10,3 C 17,3 C 10,4 C 10,3 C 10,2 C 0,0 C 84 % 87 % 0 % 1018,9 hPa 0,0 l/m 0,0 km/h (0 Bft) O 90 0 min 0,0 UV-I 7,7 C 10,2 C 0,0 km/h (0 Bft)
21.10.2012 20:00 10,0 C 17,2 C 10,3 C 10,0 C 10,0 C 0,0 C 84 % 87 % 0 % 1018,8 hPa 0,0 l/m 0,0 km/h (0 Bft) O-NO 67 0 min 0,0 UV-I 7,4 C 10,0 C 0,0 km/h (0 Bft)
21.10.2012 20:05 9,8 C 17,2 C 10,1 C 9,7 C 9,6 C 0,0 C 84 % 87 % 0 % 1018,8 hPa 0,0 l/m 0,0 km/h (0 Bft) N-NW 337 0 min 0,0 UV-I 7,2 C 9,6 C 0,0 km/h (0 Bft)
21.10.2012 20:10 9,8 C 17,2 C 10,3 C 9,8 C 9,7 C 0,0 C 85 % 88 % 0 % 1018,8 hPa 0,0 l/m 0,0 km/h (0 Bft) N-NW 337 0 min 0,0 UV-I 7,4 C 9,7 C 0,0 km/h (0 Bft)
21.10.2012 20:15 9,6 C 17,2 C 10,0 C 9,6 C 9,6 C 0,0 C 85 % 88 % 0 % 1018,8 hPa 0,0 l/m 0,0 km/h (0 Bft) O 90 0 min 0,0 UV-I 7,2 C 9,6 C 0,0 km/h (0 Bft)
21.10.2012 20:20 9,5 C 17,2 C 9,9 C 9,5 C 9,5 C 0,0 C 85 % 88 % 0 % 1018,6 hPa 0,0 l/m 0,0 km/h (0 Bft) O 90 0 min 0,0 UV-I 7,1 C 9,5 C 0,0 km/h (0 Bft)
21.10.2012 20:25 9,3 C 17,2 C 9,7 C 9,2 C 9,1 C 0,0 C 85 % 88 % 0 % 1018,6 hPa 0,0 l/m 0,0 km/h (0 Bft) SW 225 0 min 0,0 UV-I 6,9 C 9,1 C 0,0 km/h (0 Bft)
21.10.2012 20:30 9,2 C 17,2 C 9,7 C 9,1 C 9,0 C 0,0 C 85 % 88 % 0 % 1018,6 hPa 0,0 l/m 0,0 km/h (0 Bft) W-SW 247 0 min 0,0 UV-I 6,8 C 9,0 C 0,0 km/h (0 Bft)
21.10.2012 20:35 9,1 C 17,2 C 9,5 C 9,0 C 8,9 C 0,0 C 85 % 88 % 0 % 1018,6 hPa 0,0 l/m 0,0 km/h (0 Bft) O-NO 67 0 min 0,0 UV-I 6,7 C 8,9 C 0,0 km/h (0 Bft)
21.10.2012 20:40 9,1 C 17,2 C 9,2 C 9,1 C 9,0 C 0,0 C 86 % 87 % 0 % 1018,8 hPa 0,0 l/m 0,0 km/h (0 Bft) O 90 0 min 0,0 UV-I 6,9 C 9,0 C 0,0 km/h (0 Bft)
21.10.2012 20:45 8,8 C 17,2 C 9,1 C 8,9 C 8,9 C 0,1 C 86 % 88 % 0 % 1018,8 hPa 0,0 l/m 0,0 km/h (0 Bft) O 90 0 min 0,0 UV-I 6,6 C 8,9 C 0,0 km/h (0 Bft)
21.10.2012 20:50 8,8 C 17,2 C 9,1 C 8,8 C 8,8 C 0,0 C 86 % 88 % 0 % 1018,8 hPa 0,0 l/m 0,0 km/h (0 Bft) O 90 0 min 0,0 UV-I 6,6 C 8,8 C 0,0 km/h (0 Bft)
21.10.2012 20:55 8,6 C 17,2 C 8,9 C 8,8 C 8,8 C 0,2 C 87 % 88 % 0 % 1018,8 hPa 0,0 l/m 0,0 km/h (0 Bft) O 90 0 min 0,0 UV-I 6,6 C 8,8 C 0,0 km/h (0 Bft)
21.10.2012 21:00 8,6 C 17,1 C 9,0 C 8,6 C 8,6 C 0,0 C 87 % 89 % 0 % 1019,9 hPa 0,0 l/m 0,0 km/h (0 Bft) W-NW 292 0 min 0,0 UV-I 6,6 C 8,6 C 0,0 km/h (0 Bft)
21.10.2012 21:05 8,5 C 17,2 C 9,1 C 8,4 C 8,3 C 0,0 C 87 % 89 % 0 % 1019,9 hPa 0,0 l/m 0,0 km/h (0 Bft) W-NW 292 0 min 0,0 UV-I 6,5 C 8,3 C 0,0 km/h (0 Bft)
21.10.2012 21:10 8,3 C 17,2 C 8,9 C 8,2 C 8,1 C 0,0 C 87 % 89 % 0 % 1019,9 hPa 0,0 l/m 0,0 km/h (0 Bft) W-NW 292 0 min 0,0 UV-I 6,3 C 8,1 C 0,0 km/h (0 Bft)
21.10.2012 21:15 8,1 C 17,2 C 8,7 C 8,0 C 7,9 C 0,0 C 86 % 89 % 0 % 1019,9 hPa 0,0 l/m 0,0 km/h (0 Bft) N-NW 337 0 min 0,0 UV-I 5,9 C 7,9 C 0,0 km/h (0 Bft)
21.10.2012 21:20 8,1 C 17,2 C 8,7 C 8,0 C 7,8 C 0,0 C 86 % 89 % 0 % 1019,4 hPa 0,0 l/m 0,2 km/h (0 Bft) O-NO 67 0 min 0,0 UV-I 5,9 C 7,8 C 1,8 km/h (1 Bft)
21.10.2012 21:25 8,0 C 17,3 C 8,7 C 8,1 C 8,1 C 0,1 C 87 % 89 % 0 % 1019,4 hPa 0,0 l/m 0,8 km/h (0 Bft) O-NO 67 0 min 0,0 UV-I 6,0 C 8,1 C 1,9 km/h (1 Bft)
21.10.2012 21:30 7,9 C 17,2 C 8,6 C 8,1 C 8,1 C 0,2 C 87 % 89 % 0 % 1019,4 hPa 0,0 l/m 0,8 km/h (0 Bft) N-NO 22 0 min 0,0 UV-I 5,9 C 8,1 C 0,0 km/h (0 Bft)
21.10.2012 21:35 7,8 C 17,2 C 8,6 C 8,1 C 8,1 C 0,3 C 87 % 89 % 0 % 1019,4 hPa 0,0 l/m 0,3 km/h (0 Bft) N-NO 22 0 min 0,0 UV-I 5,8 C 8,1 C 0,0 km/h (0 Bft)
21.10.2012 21:40 7,9 C 17,2 C 8,7 C 8,0 C 8,0 C 0,1 C 87 % 90 % 0 % 1019,1 hPa 0,0 l/m 0,0 km/h (0 Bft) NW 315 0 min 0,0 UV-I 5,9 C 8,0 C 0,0 km/h (0 Bft)
21.10.2012 21:45 7,6 C 17,2 C 8,5 C 7,9 C 7,9 C 0,3 C 87 % 89 % 0 % 1019,1 hPa 0,0 l/m 0,0 km/h (0 Bft) O 90 0 min 0,0 UV-I 5,6 C 7,9 C 0,0 km/h (0 Bft)
21.10.2012 21:50 7,6 C 17,2 C 8,2 C 7,9 C 7,9 C 0,3 C 88 % 89 % 0 % 1019,1 hPa 0,0 l/m 0,0 km/h (0 Bft) O-NO 67 0 min 0,0 UV-I 5,7 C 7,9 C 0,0 km/h (0 Bft)
21.10.2012 21:55 7,5 C 17,2 C 8,0 C 7,9 C 7,9 C 0,4 C 88 % 89 % 0 % 1019,1 hPa 0,0 l/m 0,0 km/h (0 Bft) S 180 0 min 0,0 UV-I 5,6 C 7,9 C 0,0 km/h (0 Bft)
21.10.2012 22:00 7,5 C 17,2 C 8,1 C 7,8 C 7,8 C 0,3 C 88 % 90 % 0 % 1019,1 hPa 0,0 l/m 0,0 km/h (0 Bft) O-NO 67 0 min 0,0 UV-I 5,6 C 7,8 C 0,0 km/h (0 Bft)
21.10.2012 22:05 7,5 C 17,2 C 8,0 C 8,0 C 8,0 C 0,5 C 88 % 90 % 0 % 1019,1 hPa 0,0 l/m 0,6 km/h (0 Bft) O-NO 67 0 min 0,0 UV-I 5,6 C 8,0 C 0,0 km/h (0 Bft)
21.10.2012 22:10 7,6 C 17,2 C 8,0 C 8,1 C 8,1 C 0,5 C 88 % 90 % 0 % 1019,1 hPa 0,0 l/m 0,6 km/h (0 Bft) N-NO 22 0 min 0,0 UV-I 5,7 C 8,1 C 0,0 km/h (0 Bft)
21.10.2012 22:15 7,6 C 17,2 C 8,1 C 8,1 C 8,1 C 0,5 C 88 % 90 % 0 % 1019,1 hPa 0,0 l/m 0,5 km/h (0 Bft) S 180 0 min 0,0 UV-I 5,7 C 8,1 C 0,0 km/h (0 Bft)
21.10.2012 22:20 7,5 C 17,1 C 8,1 C 7,8 C 7,8 C 0,3 C 88 % 90 % 0 % 1019,4 hPa 0,0 l/m 0,0 km/h (0 Bft) N 360 0 min 0,0 UV-I 5,6 C 7,8 C 0,0 km/h (0 Bft)
21.10.2012 22:25 7,2 C 17,1 C 8,1 C 7,5 C 7,5 C 0,3 C 88 % 90 % 0 % 1019,4 hPa 0,0 l/m 0,0 km/h (0 Bft) S-SW 202 0 min 0,0 UV-I 5,3 C 7,5 C 0,0 km/h (0 Bft)
21.10.2012 22:30 7,1 C 17,1 C 8,1 C 7,2 C 7,2 C 0,1 C 88 % 90 % 0 % 1019,4 hPa 0,0 l/m 0,0 km/h (0 Bft) W-SW 247 0 min 0,0 UV-I 5,2 C 7,2 C 0,0 km/h (0 Bft)
21.10.2012 22:35 6,9 C 17,1 C 8,1 C 7,0 C 7,0 C 0,1 C 88 % 90 % 0 % 1019,4 hPa 0,0 l/m 0,2 km/h (0 Bft) W 270 0 min 0,0 UV-I 5,1 C 7,0 C 1,8 km/h (1 Bft)
21.10.2012 22:40 6,8 C 17,1 C 7,9 C 6,8 C 6,7 C 0,0 C 88 % 90 % 0 % 1019,8 hPa 0,0 l/m 0,2 km/h (0 Bft) O-NO 67 0 min 0,0 UV-I 5,0 C 6,7 C 0,0 km/h (0 Bft)
21.10.2012 22:45 6,8 C 17,1 C 7,7 C 6,8 C 6,8 C 0,0 C 88 % 90 % 0 % 1019,8 hPa 0,0 l/m 0,5 km/h (0 Bft) O-NO 67 0 min 0,0 UV-I 5,0 C 6,8 C 0,0 km/h (0 Bft)
21.10.2012 22:50 6,8 C 17,1 C 7,6 C 6,9 C 6,9 C 0,1 C 88 % 90 % 0 % 1019,8 hPa 0,0 l/m 0,5 km/h (0 Bft) O-NO 67 0 min 0,0 UV-I 5,0 C 6,9 C 0,0 km/h (0 Bft)
21.10.2012 22:55 6,7 C 17,0 C 7,7 C 7,0 C 7,0 C 0,3 C 88 % 90 % 0 % 1019,8 hPa 0,0 l/m 0,3 km/h (0 Bft) NW 315 0 min 0,0 UV-I 4,9 C 7,0 C 0,0 km/h (0 Bft)
21.10.2012 23:00 6,5 C 17,1 C 7,6 C 6,7 C 6,7 C 0,2 C 88 % 90 % 0 % 1019,8 hPa 0,0 l/m 0,0 km/h (0 Bft) O-NO 67 0 min 0,0 UV-I 4,7 C 6,7 C 0,0 km/h (0 Bft)
21.10.2012 23:05 6,7 C 17,1 C 7,5 C 7,0 C 7,0 C 0,3 C 89 % 91 % 0 % 1019,8 hPa 0,0 l/m 1,0 km/h (0 Bft) O 90 0 min 0,0 UV-I 5,0 C 7,0 C 2,1 km/h (1 Bft)
21.10.2012 23:10 6,7 C 17,0 C 7,5 C 7,1 C 7,1 C 0,4 C 89 % 91 % 0 % 1019,8 hPa 0,0 l/m 1,1 km/h (1 Bft) W-NW 292 0 min 0,0 UV-I 5,0 C 7,1 C 0,0 km/h (0 Bft)
21.10.2012 23:15 6,5 C 17,0 C 7,5 C 7,0 C 7,0 C 0,5 C 89 % 91 % 0 % 1019,8 hPa 0,0 l/m 0,8 km/h (0 Bft) W-SW 247 0 min 0,0 UV-I 4,8 C 7,0 C 0,0 km/h (0 Bft)
21.10.2012 23:20 6,4 C 17,0 C 7,5 C 6,6 C 6,6 C 0,2 C 89 % 91 % 0 % 1019,8 hPa 0,0 l/m 0,2 km/h (0 Bft) O-SO 112 0 min 0,0 UV-I 4,7 C 6,6 C 0,0 km/h (0 Bft)
21.10.2012 23:25 6,3 C 17,0 C 7,2 C 6,4 C 6,4 C 0,1 C 89 % 90 % 0 % 1019,8 hPa 0,0 l/m 0,0 km/h (0 Bft) O 90 0 min 0,0 UV-I 4,6 C 6,4 C 0,0 km/h (0 Bft)
21.10.2012 23:30 6,3 C 17,0 C 7,1 C 6,3 C 6,2 C 0,0 C 89 % 90 % 0 % 1019,8 hPa 0,0 l/m 0,3 km/h (0 Bft) SW 225 0 min 0,0 UV-I 4,6 C 6,2 C 2,6 km/h (1 Bft)
21.10.2012 23:35 6,0 C 17,0 C 7,1 C 6,1 C 6,1 C 0,1 C 88 % 90 % 0 % 1019,8 hPa 0,0 l/m 0,3 km/h (0 Bft) W-SW 247 0 min 0,0 UV-I 4,2 C 6,1 C 0,0 km/h (0 Bft)
21.10.2012 23:40 5,9 C 17,0 C 6,9 C 5,9 C 5,9 C 0,0 C 88 % 90 % 0 % 1019,8 hPa 0,0 l/m 0,3 km/h (0 Bft) O-NO 67 0 min 0,0 UV-I 4,1 C 5,9 C 0,0 km/h (0 Bft)
21.10.2012 23:45 5,9 C 17,0 C 6,8 C 5,9 C 5,8 C 0,0 C 88 % 90 % 0 % 1019,8 hPa 0,0 l/m 0,0 km/h (0 Bft) O-NO 67 0 min 0,0 UV-I 4,1 C 5,8 C 0,0 km/h (0 Bft)
21.10.2012 23:50 5,7 C 16,9 C 6,7 C 5,7 C 5,7 C 0,0 C 88 % 90 % 0 % 1019,8 hPa 0,0 l/m 0,0 km/h (0 Bft) SW 225 0 min 0,0 UV-I 3,9 C 5,7 C 0,0 km/h (0 Bft)
21.10.2012 23:55 5,6 C 16,9 C 6,8 C 5,7 C 5,7 C 0,1 C 89 % 90 % 0 % 1019,8 hPa 0,0 l/m 0,2 km/h (0 Bft) SW 225 0 min 0,0 UV-I 3,9 C 5,7 C 0,0 km/h (0 Bft)
_ Min-Zeit 08:40 11:25 08:00 06:55 06:55 18:00 15:25 15:20 00:00 14:40 - 00:00 - - - 00:00 08:40 06:55 00:00
Minimum _ 4,1 C 15,7 C 5,5 C 4,8 C 4,8 C 0,0 C 58 % 65 % 0 % 1017,2 hPa - 0,0 km/h (0 Bft) - - - 0,0 UV-I 2,8 C 4,8 C 0,0 km/h (0 Bft)
_ Max-Zeit 15:15 00:00 15:15 15:10 15:10 13:10 10:25 09:05 11:35 10:05 00:00 15:25 - - 13:00 12:15 14:25 15:10 15:20
Maximum _ 20,5 C 17,3 C 19,6 C 25,4 C 25,4 C 8,1 C 93 % 93 % 100 % 1020,6 hPa 0,0 l/m 7,1 km/h
O (2 Bft)
- - 14 min 1,1 UV-I 14,1 C 25,4 C 9,8 km/h
O (2 Bft)
Durchschnitt _ 10,0 C 16,6 C 10,5 C 11,5 C 11,4 C 1,5 C 84 % 87 % 29 % 1018,8 hPa #0,0 l/m 0,5 km/h (0 Bft) O-NO - #6:20 h 0,6 UV-I 7,3 C 11,4 C 0,6 km/h (0 Bft)
2012 www.wetterstation-wechselburg.de